Huvudsida
METAR-TAF:

METAR-TAF

Flygplatser :

Sions flygplats

Sion, Schweiz

latitud: 46-13N, longitud: 007-20E, höjd: 482 m

Aktuellt väderrapport

Denna rapport gjordes för 29 minuter sedan, klockan 19:20 UTC
Vind 2 kt från ost/sydost
Temperatur 5°C
Fuktighet 60%
Tryck 1018 hPa
Sikt 10 km eller mer
Spridda moln på en höjd av 10000 ft
Spridda moln på en höjd av 12000 ft

METAR: LSGS 281920Z AUTO 11002KT 9999 SCT100 SCT120 05/M02 Q1018

Tid: 20:49 (19:49 UTC)

Väderprognos

Denna rapport gjordes för 5 timmar och 24 minuter sedan, klockan 14:25 UTC
Prognos gäller från 28 kl. 15 UTC till 28 kl. 24 UTC
Vind 3 kt varierande vindriktning
Sikt 10 km eller mer
Spridda moln på en höjd av 9000 ft

TAF: LSGS 281425Z 2815/2824 VRB03KT 9999 SCT090

Aktuella väderrapporter och prognoser från 4000 flygplatser (METAR- och TAF-rapporter).

De tillgängliga stationerna syns som gula och röda prickar på kartan.

För musen över prickarna för att se namnen på stationerna.

Klicka sedan för att få väderrapporter och prognoser.

För att ändra kartan: Klicka på de gröna knapparna med ett svart kors på för att zooma in; den gröna knappen med ett streck på för att zooma ut; eller på de gröna pilarna för angränsande kartor.


METAR-TAF: